A- A+ FrançaisEnglishEspañol中国

Services sur Internet Soldes sur Internet Des idées de cadeaux Météo Météo aéro

La météo à : Autours de vous Tarbes-Lourdes-PyrénéesSt-Pierre-D'oleronLyon-Bron Macon-Charnay

La météo aéronautique pour les pilotes, la préparation du vol avec les METAR (METeorological Aerodrome Report, message d'observation des conditions météorologiques pour l'aviation) et Les TAF (Terminal Aerodrome Forecast : message de prévision à court terme des conditions météorologiques pour l'aviation). Et les autres ressources comme les VAC (Visual Approch Chart) et les NOTAM (Notice To Airman) pour préprer les vols.

Aéroport Lands End (Royaume-Uni) / OACI EGHC/ IATA LEQ

L'altitude de l'aéroport Lands End est de 121 m = 397 ft. Il est situé à proximité de Land's End (Royaume-Uni). La météo générale à 5 jours est disponible pour Penzance situé à 8.9 km.

METAR de l'aéroport Lands End - EGHC

EGHC 051520Z 23019KT 9999 BKN009 10/08 Q1018

Décodage du METAR de l'aéroport Lands End (GB)

METAR émis par EGHC le jeudi 5 décembre 2019 à 15:20 heure TU. Attention ce METAR est obsolète car il a été émis il y a 17 heure et 33 minutes.

La visibilité est de supérieure à 10 km = supérieure à 6.2 sm.

La température est de 10°C = 50 °F et le point rosée est de 8°C = 46 °F . Ce qui correspond à 87% d'humidité relative.

Le QNH est de 1018 hPa = 30.06 inHg

Vent de 19 kt = 35 km/h, orienté à 230°.

Nuages : Couverture nuageuse fragmentée à 900 ft = 270 mètres.

TAF de l'aéroport Lands End - EGHC

EGHC 051405Z 0515/0518 24012KT 9999 SCT012 BECMG 0515/0518 OVC009 TEMPO 0515/0518 24020G30KT TEMPO 0516/0518 4000 BR BKN004

EGHC 051405Z 0515/0518 24012KT 9999 nuages épars à 012 devenant 0515/0518 couverture nuageuse soudée à 009 temporairement 0515/0518 24020G30KT temporairement 0516/0518 4000 brume couverture nuageuse fragmentée à 004

Aéroport à proximité de Lands End

Météo générale à 5 jours à Penzance (8.9 km)Aéroport Culdrose (30 km)Aéroport Predannack (Closed) (33 km)Aéroport Truro (42 km)Aéroport Perranporth (43 km)Aéroport Scilly Isles (49 km)Aéroport Bodmin (84 km)

Vue aérienne de l'aéroport Lands End

NOTAM de l'aéroport Lands End

Les NOTAM sont fournis sans aucune garantie de leur actualité. Le pilote est le seul responsable de la vérification de sa validité avant de l'utiliser opérationnellement pour préparer un vol ou l'utiliser lors de sa navigation.

Pas de NOTAM

Sources des données